Time;durP1;ratioP1;P1;durP2;ratioP2;P2;SDS_P1;SDS_P2;PMS_P1;PMS_P2;Temp;Humidity;BMP_temperature;BMP_pressure;BME280_temperature;BME280_humidity;BME280_pressure;Samples;Min_cycle;Max_cycle;Signal;HPM_P1;HPM_P2
2023/08/01 00:00:11;;;;;;;5.28;2.63;;;;;;;19.47;82.96;97395.97;2613387;28;20072;-85
2023/08/01 00:01:43;;;;;;;3.70;2.58;;;;;;;19.59;83.81;97388.84;2613379;28;20048;-85
2023/08/01 00:02:59;;;;;;;5.20;2.60;;;;;;;19.64;83.10;97387.63;2613345;28;20053;-85
2023/08/01 00:04:14;;;;;;;6.22;2.45;;;;;;;19.64;84.49;97390.28;2613392;28;20045;-85
2023/08/01 00:05:30;;;;;;;6.45;2.63;;;;;;;19.61;83.71;97384.25;2602173;28;20076;-85
2023/08/01 00:06:45;;;;;;;3.97;2.58;;;;;;;19.54;84.26;97383.06;2606763;28;20075;-85
2023/08/01 00:08:02;;;;;;;5.25;2.45;;;;;;;19.46;85.86;97385.50;2613445;28;20404;-85
2023/08/01 00:09:17;;;;;;;3.15;2.17;;;;;;;19.51;86.23;97372.69;2613404;28;20049;-85
2023/08/01 00:10:33;;;;;;;4.80;2.28;;;;;;;19.37;87.03;97381.78;2613253;28;20111;-85
2023/08/01 00:11:48;;;;;;;4.50;2.28;;;;;;;19.51;85.96;97378.00;2613329;28;20052;-85
2023/08/01 00:13:04;;;;;;;4.82;2.38;;;;;;;19.50;87.73;97378.16;2613242;28;20045;-85
2023/08/01 00:14:20;;;;;;;7.43;2.55;;;;;;;19.44;89.35;97375.00;2613210;28;20049;-85
2023/08/01 00:15:35;;;;;;;5.03;2.15;;;;;;;19.39;89.34;97371.88;2613212;28;20053;-85
2023/08/01 00:16:51;;;;;;;4.28;2.20;;;;;;;19.36;90.18;97363.34;2613227;28;20045;-85
2023/08/01 00:18:07;;;;;;;7.25;2.47;;;;;;;19.38;89.68;97358.72;2613223;28;20074;-85
2023/08/01 00:19:22;;;;;;;3.97;2.50;;;;;;;19.28;92.11;97356.84;2613204;28;20427;-85
2023/08/01 00:20:39;;;;;;;4.80;2.20;;;;;;;19.28;91.48;97351.53;2613293;28;20649;-86
2023/08/01 00:21:55;;;;;;;7.35;2.90;;;;;;;19.25;95.19;97350.94;2613275;28;20123;-85
2023/08/01 00:23:10;;;;;;;4.38;2.50;;;;;;;19.14;94.04;97354.47;2612993;28;20072;-85
2023/08/01 00:24:26;;;;;;;4.25;2.40;;;;;;;19.27;92.55;97354.31;2613136;28;20049;-85
2023/08/01 00:25:41;;;;;;;4.30;2.25;;;;;;;19.18;92.29;97348.78;2613052;28;20064;-85
2023/08/01 00:26:57;;;;;;;4.40;2.42;;;;;;;19.26;91.93;97357.94;2601918;28;20054;-85
2023/08/01 00:28:13;;;;;;;4.38;2.50;;;;;;;19.25;92.94;97353.59;2606504;28;20052;-85
2023/08/01 00:29:29;;;;;;;3.72;2.28;;;;;;;19.30;92.55;97349.59;2613073;28;20045;-85
2023/08/01 00:30:45;;;;;;;4.25;2.47;;;;;;;19.28;92.93;97346.25;2613027;28;20041;-85
2023/08/01 00:32:00;;;;;;;4.57;2.50;;;;;;;19.43;90.90;97356.56;2613134;28;20074;-85
2023/08/01 00:33:16;;;;;;;5.85;2.72;;;;;;;19.33;91.91;97356.44;2613068;28;20124;-85
2023/08/01 00:34:31;;;;;;;4.28;2.70;;;;;;;19.29;88.34;97347.91;2613049;28;20102;-86
2023/08/01 00:35:53;;;;;;;6.18;2.65;;;;;;;19.33;88.22;97354.66;2613011;28;20050;-86
2023/08/01 00:37:09;;;;;;;4.07;2.65;;;;;;;19.52;86.43;97349.66;2613059;28;20382;-85
2023/08/01 00:38:25;;;;;;;5.55;2.80;;;;;;;19.32;88.76;97346.81;2613004;28;20090;-85
2023/08/01 00:39:40;;;;;;;5.22;2.30;;;;;;;19.42;89.85;97350.41;2612989;28;20059;-85
2023/08/01 00:40:56;;;;;;;3.70;2.60;;;;;;;19.33;91.14;97348.50;2612952;28;20040;-85
2023/08/01 00:42:11;;;;;;;5.05;2.50;;;;;;;19.33;92.18;97344.03;2612872;28;20648;-85
2023/08/01 00:43:27;;;;;;;4.07;2.35;;;;;;;19.19;93.38;97333.72;2612923;28;20053;-85
2023/08/01 00:44:42;;;;;;;3.33;2.53;;;;;;;19.27;93.55;97331.25;2612807;28;20067;-85
2023/08/01 00:46:01;;;;;;;3.47;2.45;;;;;;;19.26;93.79;97324.25;2612885;28;20045;-85
2023/08/01 00:47:16;;;;;;;3.75;2.60;;;;;;;19.22;94.21;97324.66;2612871;28;20041;-86
2023/08/01 00:48:32;;;;;;;6.22;2.10;;;;;;;19.07;94.04;97319.63;2612979;28;20048;-85
2023/08/01 00:49:48;;;;;;;7.47;2.60;;;;;;;19.20;90.78;97315.00;2612881;28;20434;-85
2023/08/01 00:51:07;;;;;;;6.10;2.30;;;;;;;19.26;90.10;97316.31;2612886;28;20452;-85
2023/08/01 00:52:22;;;;;;;3.13;2.38;;;;;;;19.30;90.06;97311.59;2612877;28;20044;-85
2023/08/01 00:53:38;;;;;;;5.32;2.42;;;;;;;19.30;89.04;97308.94;2612690;28;20052;-85
2023/08/01 00:54:54;;;;;;;4.13;2.30;;;;;;;19.31;90.11;97305.31;2612876;28;20535;-85
2023/08/01 00:56:10;;;;;;;4.47;2.63;;;;;;;19.38;89.57;97303.00;2612889;28;20045;-85
2023/08/01 00:57:25;;;;;;;4.63;2.50;;;;;;;19.28;91.05;97305.56;2612862;28;20041;-85
2023/08/01 00:58:41;;;;;;;6.18;2.75;;;;;;;19.33;90.55;97301.56;2612780;28;20069;-85
2023/08/01 00:59:56;;;;;;;6.15;2.53;;;;;;;19.24;91.43;97302.31;2612802;28;20037;-85
2023/08/01 01:01:12;;;;;;;5.30;2.60;;;;;;;19.27;90.31;97303.91;2612668;28;20098;-85
2023/08/01 01:02:28;;;;;;;4.25;2.50;;;;;;;19.23;92.02;97305.13;2612792;28;20056;-85
2023/08/01 01:03:44;;;;;;;3.95;2.30;;;;;;;19.13;93.67;97305.00;2612807;28;20045;-85
2023/08/01 01:05:00;;;;;;;4.88;2.47;;;;;;;19.06;94.29;97302.00;2612878;28;20045;-85
2023/08/01 01:06:32;;;;;;;4.30;2.40;;;;;;;19.19;94.14;97299.22;2601746;28;20517;-85
2023/08/01 01:07:48;;;;;;;3.88;2.30;;;;;;;19.30;91.80;97296.53;2608279;28;20067;-85
2023/08/01 01:09:15;;;;;;;4.68;2.38;;;;;;;19.25;93.31;97301.34;2612847;28;20040;-85
2023/08/01 01:10:31;;;;;;;3.83;2.30;;;;;;;19.08;93.69;97302.75;2612691;28;20453;-85
2023/08/01 01:11:47;;;;;;;3.88;2.20;;;;;;;19.19;94.50;97307.19;2612575;28;20087;-85
2023/08/01 01:13:03;;;;;;;3.75;2.30;;;;;;;19.14;94.68;97302.25;2612676;28;20513;-85
2023/08/01 01:14:18;;;;;;;6.57;2.28;;;;;;;19.15;95.13;97298.63;2612776;28;20126;-86
2023/08/01 01:15:34;;;;;;;7.45;2.80;;;;;;;19.30;93.46;97293.03;2612716;28;20091;-85
2023/08/01 01:16:51;;;;;;;3.47;2.28;;;;;;;19.21;93.60;97297.28;2612438;28;20044;-85
2023/08/01 01:18:06;;;;;;;7.38;2.72;;;;;;;19.34;93.31;97294.44;2612876;28;20450;-86
2023/08/01 01:19:22;;;;;;;3.95;2.20;;;;;;;19.33;93.40;97284.81;2612629;28;20045;-85
2023/08/01 01:20:38;;;;;;;4.82;2.80;;;;;;;19.32;92.82;97283.97;2612589;28;20053;-85
2023/08/01 01:21:54;;;;;;;3.97;2.42;;;;;;;19.36;91.48;97275.75;2612725;28;20048;-85
2023/08/01 01:23:10;;;;;;;7.15;2.60;;;;;;;19.37;92.39;97265.03;2612583;28;20109;-85
2023/08/01 01:24:27;;;;;;;4.53;2.50;;;;;;;19.38;90.82;97263.19;2612519;28;20494;-85
2023/08/01 01:25:45;;;;;;;4.80;2.60;;;;;;;19.13;93.96;97268.72;2612621;28;20496;-85
2023/08/01 01:27:03;;;;;;;3.55;2.40;;;;;;;19.15;93.01;97268.59;2612591;28;20087;-85
2023/08/01 01:28:20;;;;;;;3.75;2.40;;;;;;;19.25;91.41;97266.84;2601552;28;20127;-85
2023/08/01 01:29:36;;;;;;;4.18;2.65;;;;;;;19.28;90.82;97266.63;2606090;28;20484;-85
2023/08/01 01:30:53;;;;;;;3.63;2.20;;;;;;;19.39;89.98;97267.53;2612543;28;20592;-86
2023/08/01 01:32:09;;;;;;;5.72;2.50;;;;;;;19.47;88.95;97254.47;2612568;28;20162;-85
2023/08/01 01:33:25;;;;;;;3.70;2.40;;;;;;;19.42;88.96;97262.00;2601430;28;20049;-85
2023/08/01 01:34:40;;;;;;;3.67;2.50;;;;;;;19.34;89.05;97257.28;2605704;28;20123;-86
2023/08/01 01:35:56;;;;;;;4.28;2.38;;;;;;;19.36;88.24;97250.06;2612592;28;20037;-85
2023/08/01 01:37:11;;;;;;;3.95;2.72;;;;;;;19.45;88.51;97249.28;2612528;28;20083;-85
2023/08/01 01:38:27;;;;;;;2.97;2.05;;;;;;;19.44;88.50;97244.13;2612021;28;20052;-85
2023/08/01 01:39:42;;;;;;;5.70;2.50;;;;;;;19.43;88.04;97242.44;2612391;28;20386;-85
2023/08/01 01:40:58;;;;;;;4.53;2.40;;;;;;;19.57;87.45;97247.44;2612523;28;20098;-85
2023/08/01 01:42:13;;;;;;;5.63;2.50;;;;;;;19.44;87.17;97238.81;2612436;28;20049;-85
2023/08/01 01:43:29;;;;;;;3.72;2.63;;;;;;;19.57;86.44;97234.16;2612334;28;20045;-86
2023/08/01 01:44:45;;;;;;;3.42;2.35;;;;;;;19.44;87.06;97233.50;2612498;28;20052;-85
2023/08/01 01:46:00;;;;;;;7.53;2.88;;;;;;;19.33;89.36;97223.75;2612552;28;20442;-85
2023/08/01 01:47:17;;;;;;;7.05;2.33;;;;;;;19.46;90.17;97220.94;2612439;28;20041;-86
2023/08/01 01:48:33;;;;;;;4.15;2.20;;;;;;;19.23;92.78;97218.38;2612443;28;20040;-86
2023/08/01 01:49:48;;;;;;;5.30;2.85;;;;;;;19.42;93.60;97216.88;2612328;28;20492;-85
2023/08/01 01:51:03;;;;;;;4.57;2.67;;;;;;;19.20;94.16;97210.69;2612511;28;20045;-85
2023/08/01 01:52:19;;;;;;;6.45;3.08;;;;;;;19.36;93.13;97212.06;2612264;28;20099;-85
2023/08/01 01:53:35;;;;;;;4.40;2.65;;;;;;;19.20;94.91;97206.22;2601291;28;20063;-85
2023/08/01 01:54:50;;;;;;;4.40;2.50;;;;;;;19.25;95.16;97205.00;2605675;28;20052;-85
2023/08/01 01:56:05;;;;;;;7.60;2.53;;;;;;;19.28;94.94;97208.25;2612554;28;20064;-85
2023/08/01 01:57:21;;;;;;;4.07;2.30;;;;;;;19.32;94.37;97204.34;2612244;28;20436;-85
2023/08/01 01:58:37;;;;;;;4.15;2.67;;;;;;;19.29;94.21;97199.31;2612343;28;20508;-85
2023/08/01 01:59:52;;;;;;;5.85;2.75;;;;;;;19.29;94.30;97196.66;2612225;28;20049;-85
2023/08/01 02:01:08;;;;;;;7.43;2.92;;;;;;;19.29;96.21;97198.47;2612184;28;20065;-85
2023/08/01 02:02:23;;;;;;;3.10;2.28;;;;;;;19.14;98.47;97192.66;2612360;28;20381;-85
2023/08/01 02:03:39;;;;;;;4.28;2.55;;;;;;;19.18;99.40;97200.19;2612226;28;20052;-85
2023/08/01 02:04:54;;;;;;;4.45;2.58;;;;;;;19.14;100.00;97193.47;2612202;28;20048;-85
2023/08/01 02:06:10;;;;;;;4.75;2.58;;;;;;;19.17;100.00;97195.03;2612259;28;20041;-85
2023/08/01 02:07:25;;;;;;;6.32;3.00;;;;;;;19.19;100.00;97185.13;2612254;28;20510;-83
2023/08/01 02:08:41;;;;;;;4.90;2.42;;;;;;;19.10;100.00;97183.25;2612170;28;20045;-84
2023/08/01 02:09:56;;;;;;;5.75;2.58;;;;;;;18.97;100.00;97191.34;2612298;28;20048;-84
2023/08/01 02:11:12;;;;;;;5.85;2.45;;;;;;;19.00;100.00;97202.59;2612402;28;20049;-84
2023/08/01 02:12:31;;;;;;;4.38;2.47;;;;;;;19.13;100.00;97193.59;2601306;28;20080;-85
2023/08/01 02:13:47;;;;;;;6.10;2.50;;;;;;;19.09;100.00;97192.16;2606225;28;20546;-84
2023/08/01 02:15:02;;;;;;;5.15;2.67;;;;;;;19.07;100.00;97196.75;2612149;28;20110;-85
2023/08/01 02:16:18;;;;;;;4.15;2.90;;;;;;;19.11;100.00;97198.19;2612250;28;20471;-85
2023/08/01 02:17:33;;;;;;;5.75;2.42;;;;;;;19.09;100.00;97192.16;2612394;28;20054;-84
2023/08/01 02:18:49;;;;;;;4.43;2.80;;;;;;;19.14;100.00;97190.00;2612223;28;20041;-85
2023/08/01 02:20:05;;;;;;;6.38;2.70;;;;;;;19.04;100.00;97195.19;2612257;28;20053;-85
2023/08/01 02:21:21;;;;;;;5.38;2.88;;;;;;;18.92;100.00;97195.19;2612132;28;20049;-85
2023/08/01 02:22:36;;;;;;;5.88;3.08;;;;;;;18.93;100.00;97188.09;2612213;28;20056;-85
2023/08/01 02:23:52;;;;;;;4.40;2.78;;;;;;;18.86;100.00;97181.63;2612147;28;20056;-85
2023/08/01 02:25:08;;;;;;;4.15;2.70;;;;;;;19.01;100.00;97168.94;2612203;28;20053;-84
2023/08/01 02:26:24;;;;;;;6.05;2.55;;;;;;;18.99;100.00;97169.03;2612293;28;20056;-85
2023/08/01 02:27:39;;;;;;;4.97;2.70;;;;;;;19.01;100.00;97166.28;2612253;28;20049;-85
2023/08/01 02:28:55;;;;;;;6.85;2.80;;;;;;;18.92;100.00;97168.69;2612165;28;20047;-85
2023/08/01 02:30:11;;;;;;;6.40;3.03;;;;;;;18.91;100.00;97164.34;2612263;28;20044;-85
2023/08/01 02:31:26;;;;;;;5.22;2.70;;;;;;;18.94;100.00;97167.75;2612188;28;20056;-84
2023/08/01 02:32:42;;;;;;;4.15;2.50;;;;;;;18.89;100.00;97162.81;2612097;28;20424;-85
2023/08/01 02:33:57;;;;;;;4.65;2.72;;;;;;;18.85;100.00;97154.25;2612228;28;20072;-85
2023/08/01 02:35:13;;;;;;;5.55;2.80;;;;;;;18.82;100.00;97161.63;2601028;28;20045;-85
2023/08/01 02:36:28;;;;;;;5.53;2.80;;;;;;;18.75;100.00;97156.84;2594879;28;20058;-85
2023/08/01 02:37:44;;;;;;;5.35;3.00;;;;;;;18.76;100.00;97155.00;2605379;28;20540;-85
2023/08/01 02:39:00;;;;;;;5.53;2.95;;;;;;;18.84;100.00;97162.34;2612160;28;20099;-85
2023/08/01 02:40:15;;;;;;;5.28;2.90;;;;;;;18.71;100.00;97154.56;2612226;28;20052;-85
2023/08/01 02:41:31;;;;;;;4.57;2.83;;;;;;;18.89;100.00;97154.84;2612070;28;20045;-85
2023/08/01 02:42:46;;;;;;;4.70;2.85;;;;;;;18.94;100.00;97150.00;2612036;28;20044;-85
2023/08/01 02:44:02;;;;;;;6.55;3.05;;;;;;;18.88;100.00;97142.56;2612133;28;20049;-85
2023/08/01 02:45:18;;;;;;;5.47;2.53;;;;;;;18.84;100.00;97146.44;2611947;28;20493;-85
2023/08/01 02:46:33;;;;;;;5.22;2.97;;;;;;;18.94;100.00;97147.34;2600978;28;20512;-85
2023/08/01 02:47:49;;;;;;;5.70;3.28;;;;;;;18.95;100.00;97154.34;2605541;28;20056;-85
2023/08/01 02:49:04;;;;;;;4.00;2.70;;;;;;;18.97;100.00;97155.03;2612124;28;20098;-85
2023/08/01 02:50:20;;;;;;;6.13;2.95;;;;;;;18.99;100.00;97152.28;2613154;28;20049;-85
2023/08/01 02:51:35;;;;;;;4.85;2.75;;;;;;;18.78;100.00;97164.53;2614071;28;20057;-85
2023/08/01 02:52:51;;;;;;;6.30;3.00;;;;;;;18.69;100.00;97159.16;2614163;28;20392;-85
2023/08/01 02:54:06;;;;;;;5.28;2.90;;;;;;;18.71;100.00;97155.38;2613964;28;20040;-85
2023/08/01 02:55:22;;;;;;;5.63;3.20;;;;;;;18.69;100.00;97149.38;2614001;28;20041;-85
2023/08/01 02:56:40;;;;;;;7.55;3.22;;;;;;;18.75;100.00;97148.88;2613997;28;20057;-85
2023/08/01 02:57:56;;;;;;;3.88;2.72;;;;;;;18.73;100.00;97140.22;2614052;28;20489;-85
2023/08/01 02:59:12;;;;;;;3.92;2.60;;;;;;;18.73;100.00;97150.81;2614075;28;20140;-85
2023/08/01 03:00:28;;;;;;;4.22;2.55;;;;;;;18.71;100.00;97144.78;2613824;28;20045;-85
2023/08/01 03:01:43;;;;;;;5.53;2.90;;;;;;;18.70;100.00;97148.41;2613982;28;20055;-85
2023/08/01 03:02:58;;;;;;;4.20;2.67;;;;;;;18.66;100.00;97144.34;2613926;28;20066;-85
2023/08/01 03:04:14;;;;;;;5.55;2.60;;;;;;;18.55;100.00;97141.72;2613941;28;20063;-85
2023/08/01 03:05:30;;;;;;;11.40;3.03;;;;;;;18.40;100.00;97139.34;2613810;28;20079;-84
2023/08/01 03:06:45;;;;;;;4.60;2.83;;;;;;;18.59;100.00;97138.69;2613918;28;20052;-85
2023/08/01 03:08:01;;;;;;;6.25;3.30;;;;;;;18.54;100.00;97142.69;2614009;28;20049;-85
2023/08/01 03:09:17;;;;;;;4.07;2.72;;;;;;;18.70;100.00;97136.97;2613872;28;20051;-85
2023/08/01 03:10:32;;;;;;;5.30;2.80;;;;;;;18.74;100.00;97131.31;2613874;28;20553;-85
2023/08/01 03:11:48;;;;;;;8.07;3.00;;;;;;;18.45;100.00;97134.53;2613892;28;20419;-85
2023/08/01 03:13:03;;;;;;;6.65;2.90;;;;;;;18.48;100.00;97133.44;2614019;28;20099;-85
2023/08/01 03:14:19;;;;;;;4.53;2.95;;;;;;;18.42;100.00;97137.41;2613768;28;20116;-85
2023/08/01 03:15:34;;;;;;;3.90;2.70;;;;;;;18.58;100.00;97142.31;2613787;28;20045;-85
2023/08/01 03:16:50;;;;;;;3.90;2.83;;;;;;;18.44;100.00;97137.28;2613914;28;20049;-85
2023/08/01 03:18:05;;;;;;;5.47;2.83;;;;;;;18.47;100.00;97135.25;2613873;28;20041;-84
2023/08/01 03:19:21;;;;;;;4.68;2.75;;;;;;;18.49;100.00;97135.97;2613753;28;20093;-85
2023/08/01 03:20:37;;;;;;;5.20;2.50;;;;;;;18.49;100.00;97133.31;2613870;28;20045;-85
2023/08/01 03:21:52;;;;;;;4.18;2.67;;;;;;;18.68;100.00;97123.84;2613913;28;20040;-84
2023/08/01 03:23:08;;;;;;;3.78;3.10;;;;;;;18.81;100.00;97131.63;2602766;28;20140;-84
2023/08/01 03:24:23;;;;;;;4.93;2.88;;;;;;;18.70;100.00;97123.72;2607117;28;20112;-85
2023/08/01 03:25:39;;;;;;;5.95;2.58;;;;;;;18.57;100.00;97130.03;2613699;28;20045;-85
2023/08/01 03:26:54;;;;;;;5.13;2.58;;;;;;;18.67;100.00;97131.94;2613780;28;20037;-85
2023/08/01 03:28:10;;;;;;;4.35;2.78;;;;;;;18.61;100.00;97127.97;2613701;28;20045;-85
2023/08/01 03:29:25;;;;;;;3.65;2.53;;;;;;;18.74;100.00;97120.69;2613709;28;20045;-85
2023/08/01 03:30:41;;;;;;;6.13;2.92;;;;;;;18.73;100.00;97119.00;2613738;28;20052;-84
2023/08/01 03:31:56;;;;;;;5.32;2.75;;;;;;;18.73;100.00;97116.38;2613726;28;20060;-85
2023/08/01 03:33:12;;;;;;;4.22;2.90;;;;;;;18.74;100.00;97115.41;2613771;28;20056;-85
2023/08/01 03:34:28;;;;;;;4.70;2.60;;;;;;;18.59;100.00;97112.19;2613634;28;20053;-85
2023/08/01 03:35:43;;;;;;;4.22;2.53;;;;;;;18.55;100.00;97115.22;2613636;28;20041;-85
2023/08/01 03:36:59;;;;;;;5.25;2.88;;;;;;;18.63;100.00;97116.25;2613577;28;20431;-84
2023/08/01 03:38:14;;;;;;;5.55;2.83;;;;;;;18.59;100.00;97112.19;2613688;28;20080;-85
2023/08/01 03:39:30;;;;;;;3.60;2.70;;;;;;;18.56;100.00;97108.94;2613710;28;20404;-85
2023/08/01 03:40:46;;;;;;;4.55;2.72;;;;;;;18.59;100.00;97106.88;2613621;28;20044;-85
2023/08/01 03:42:02;;;;;;;5.35;2.80;;;;;;;18.64;100.00;97098.56;2613784;28;20528;-85
2023/08/01 03:43:23;;;;;;;4.45;3.00;;;;;;;18.62;100.00;97100.50;2613497;28;20087;-85
2023/08/01 03:44:38;;;;;;;3.88;2.58;;;;;;;18.60;100.00;97097.13;2602355;28;20054;-85
2023/08/01 03:45:54;;;;;;;5.72;2.70;;;;;;;18.37;100.00;97099.00;2606937;28;20065;-85
2023/08/01 03:47:09;;;;;;;3.85;2.53;;;;;;;18.43;100.00;97085.28;2613589;28;20124;-85
2023/08/01 03:48:25;;;;;;;4.72;2.60;;;;;;;18.47;100.00;97092.00;2613473;28;20041;-85
2023/08/01 03:49:41;;;;;;;4.93;2.60;;;;;;;18.43;100.00;97086.09;2613614;28;20045;-85
2023/08/01 03:50:56;;;;;;;6.63;2.60;;;;;;;18.52;100.00;97084.53;2613576;28;20090;-85
2023/08/01 03:52:12;;;;;;;5.68;2.97;;;;;;;18.47;100.00;97084.91;2613437;28;20056;-85
2023/08/01 03:53:27;;;;;;;5.47;2.88;;;;;;;18.49;100.00;97085.59;2613456;28;20048;-85
2023/08/01 03:54:43;;;;;;;5.30;3.08;;;;;;;18.59;100.00;97079.56;2613572;28;20041;-85
2023/08/01 03:55:58;;;;;;;4.93;2.67;;;;;;;18.52;100.00;97078.38;2613371;28;20451;-85
2023/08/01 03:57:14;;;;;;;4.53;2.75;;;;;;;18.56;100.00;97063.88;2613601;28;20045;-85
2023/08/01 03:58:30;;;;;;;6.22;2.75;;;;;;;18.54;100.00;97073.78;2613412;28;20167;-85
2023/08/01 03:59:48;;;;;;;4.60;2.85;;;;;;;18.41;100.00;97063.34;2613422;28;20044;-85
2023/08/01 04:01:06;;;;;;;3.30;2.50;;;;;;;18.38;100.00;97064.44;2612790;28;20103;-85
2023/08/01 04:02:21;;;;;;;4.18;2.67;;;;;;;18.46;100.00;97059.38;2613224;28;20049;-85
2023/08/01 04:03:37;;;;;;;4.95;2.65;;;;;;;18.54;100.00;97056.06;2613236;28;20567;-84
2023/08/01 04:04:53;;;;;;;4.40;2.40;;;;;;;18.45;100.00;97063.00;2613565;28;20048;-85
2023/08/01 04:06:08;;;;;;;8.93;2.97;;;;;;;18.47;100.00;97060.19;2613434;28;20045;-85
2023/08/01 04:07:24;;;;;;;7.85;2.50;;;;;;;18.45;100.00;97059.47;2602230;28;20428;-85
2023/08/01 04:08:39;;;;;;;5.95;2.72;;;;;;;18.60;100.00;97060.84;2606578;28;20497;-85
2023/08/01 04:09:55;;;;;;;7.00;2.78;;;;;;;18.62;100.00;97056.25;2602477;28;20041;-85
2023/08/01 04:11:11;;;;;;;4.10;2.80;;;;;;;18.52;100.00;97055.38;2606550;28;20049;-85
2023/08/01 04:12:26;;;;;;;7.40;2.53;;;;;;;18.61;100.00;97048.47;2613362;28;20053;-84
2023/08/01 04:13:42;;;;;;;4.85;2.83;;;;;;;18.67;100.00;97050.59;2613272;28;20416;-85
2023/08/01 04:14:58;;;;;;;5.13;3.10;;;;;;;18.52;100.00;97052.72;2613396;28;20052;-85
2023/08/01 04:16:13;;;;;;;5.07;2.95;;;;;;;18.63;100.00;97044.69;2613153;28;20045;-85
2023/08/01 04:17:29;;;;;;;6.38;3.10;;;;;;;18.69;100.00;97053.94;2613218;28;20045;-85
2023/08/01 04:18:45;;;;;;;4.88;3.05;;;;;;;18.67;100.00;97047.94;2613320;28;20102;-85
2023/08/01 04:20:00;;;;;;;6.07;3.28;;;;;;;18.42;100.00;97052.63;2613122;28;20041;-85
2023/08/01 04:21:16;;;;;;;4.80;2.67;;;;;;;18.46;100.00;97056.72;2613167;28;20048;-84
2023/08/01 04:22:31;;;;;;;4.95;2.67;;;;;;;18.42;100.00;97057.91;2613103;28;20064;-85
2023/08/01 04:23:47;;;;;;;4.55;2.92;;;;;;;18.41;100.00;97055.41;2613277;28;20048;-85
2023/08/01 04:25:03;;;;;;;4.70;2.90;;;;;;;18.44;100.00;97063.09;2613171;28;20051;-84
2023/08/01 04:26:18;;;;;;;5.50;3.00;;;;;;;18.53;100.00;97061.50;2613114;28;20063;-85
2023/08/01 04:27:34;;;;;;;6.03;2.63;;;;;;;18.42;100.00;97057.09;2613103;28;20405;-85
2023/08/01 04:28:49;;;;;;;7.63;2.67;;;;;;;18.48;100.00;97060.06;2613080;28;20052;-85
2023/08/01 04:30:06;;;;;;;3.58;2.65;;;;;;;18.56;100.00;97053.28;2613299;28;20041;-85
2023/08/01 04:31:21;;;;;;;4.32;2.92;;;;;;;18.66;100.00;97051.56;2613020;28;20044;-84
2023/08/01 04:32:37;;;;;;;6.90;2.83;;;;;;;18.69;100.00;97048.63;2613122;28;20103;-85
2023/08/01 04:33:52;;;;;;;4.80;2.60;;;;;;;18.68;100.00;97048.78;2613142;28;20045;-85
2023/08/01 04:35:08;;;;;;;4.25;2.30;;;;;;;18.63;100.00;97049.16;2613189;28;20055;-85
2023/08/01 04:36:24;;;;;;;5.85;2.45;;;;;;;18.66;100.00;97048.91;2612998;28;20065;-85
2023/08/01 04:37:39;;;;;;;6.03;2.80;;;;;;;18.69;100.00;97045.97;2612838;28;20068;-85
2023/08/01 04:38:55;;;;;;;5.53;2.70;;;;;;;18.80;100.00;97050.41;2613188;28;20507;-85
2023/08/01 04:40:10;;;;;;;5.82;3.35;;;;;;;18.84;100.00;97041.22;2613161;28;20051;-85
2023/08/01 04:41:26;;;;;;;4.53;2.70;;;;;;;18.72;100.00;97043.09;2612886;28;20048;-85
2023/08/01 04:42:42;;;;;;;5.10;2.80;;;;;;;18.88;100.00;97041.81;2601901;28;20056;-85
2023/08/01 04:43:57;;;;;;;3.60;2.58;;;;;;;18.77;100.00;97045.34;2606368;28;20095;-85
2023/08/01 04:45:14;;;;;;;4.00;2.67;;;;;;;18.88;100.00;97041.81;2601758;28;20045;-85
2023/08/01 04:46:29;;;;;;;5.45;2.85;;;;;;;18.68;100.00;97039.00;2606481;28;20041;-85
2023/08/01 04:47:45;;;;;;;6.53;2.92;;;;;;;18.74;100.00;97041.16;2613043;28;20042;-85
2023/08/01 04:49:00;;;;;;;6.57;2.95;;;;;;;18.66;100.00;97035.66;2613015;28;20049;-85
2023/08/01 04:50:16;;;;;;;5.53;2.78;;;;;;;18.74;100.00;97040.31;2612847;28;20045;-85
2023/08/01 04:51:32;;;;;;;4.90;2.35;;;;;;;18.71;100.00;97036.09;2612799;28;20044;-85
2023/08/01 04:52:47;;;;;;;5.82;2.42;;;;;;;18.66;100.00;97038.28;2612958;28;20045;-85
2023/08/01 04:54:03;;;;;;;4.55;2.50;;;;;;;18.69;100.00;97037.22;2612919;28;20048;-85
2023/08/01 04:55:18;;;;;;;4.22;2.50;;;;;;;18.81;100.00;97036.19;2613031;28;20463;-84
2023/08/01 04:56:34;;;;;;;5.35;2.70;;;;;;;18.83;100.00;97030.72;2601858;28;20069;-84
2023/08/01 04:57:49;;;;;;;4.28;2.00;;;;;;;18.76;100.00;97033.06;2606177;28;20052;-85
2023/08/01 04:59:05;;;;;;;5.05;2.30;;;;;;;18.96;100.00;97025.25;2612978;28;20056;-84
2023/08/01 05:00:21;;;;;;;3.53;2.38;;;;;;;18.99;100.00;97035.56;2612860;28;20063;-85
2023/08/01 05:01:36;;;;;;;4.45;2.25;;;;;;;19.03;100.00;97029.91;2612526;28;20072;-84
2023/08/01 05:02:52;;;;;;;5.55;2.47;;;;;;;18.97;100.00;97029.56;2612692;28;20056;-85
2023/08/01 05:04:07;;;;;;;2.70;1.83;;;;;;;18.87;100.00;97025.03;2613038;28;20102;-84
2023/08/01 05:05:23;;;;;;;3.42;2.17;;;;;;;18.91;100.00;97025.63;2612692;28;20045;-85
2023/08/01 05:06:40;;;;;;;6.47;2.33;;;;;;;18.81;100.00;97025.56;2612601;28;20132;-84
2023/08/01 05:07:55;;;;;;;4.80;2.75;;;;;;;19.10;100.00;97022.28;2612648;28;20056;-84
2023/08/01 05:09:11;;;;;;;4.90;2.47;;;;;;;18.99;100.00;97019.66;2601752;28;20501;-84
2023/08/01 05:10:26;;;;;;;3.72;1.70;;;;;;;18.83;100.00;97012.16;2605893;28;20488;-85
2023/08/01 05:11:42;;;;;;;5.30;1.98;;;;;;;18.82;100.00;97018.44;2612744;28;20104;-84
2023/08/01 05:12:58;;;;;;;2.50;1.70;;;;;;;18.83;100.00;97012.16;2612096;28;20102;-84
2023/08/01 05:14:13;;;;;;;5.40;2.30;;;;;;;18.80;100.00;97013.28;2612693;28;20045;-84
2023/08/01 05:15:29;;;;;;;2.78;2.10;;;;;;;18.92;100.00;97016.69;2612559;28;20049;-84
2023/08/01 05:16:44;;;;;;;5.72;1.88;;;;;;;18.52;100.00;97014.75;2612675;28;20491;-84
2023/08/01 05:18:00;;;;;;;4.85;2.30;;;;;;;18.73;100.00;97015.63;2612685;28;20056;-85
2023/08/01 05:19:15;;;;;;;4.15;2.10;;;;;;;18.68;100.00;96999.25;2612653;28;20075;-85
2023/08/01 05:20:33;;;;;;;4.82;2.90;;;;;;;18.88;100.00;96999.38;2612743;28;20056;-84
2023/08/01 05:21:49;;;;;;;3.78;2.20;;;;;;;18.70;100.00;97001.78;2612547;28;20107;-85
2023/08/01 05:23:04;;;;;;;4.10;2.05;;;;;;;18.55;100.00;96999.44;2612603;28;20444;-85
2023/08/01 05:24:20;;;;;;;4.00;2.22;;;;;;;18.57;100.00;96994.00;2612632;28;20041;-85
2023/08/01 05:25:35;;;;;;;3.20;1.92;;;;;;;18.68;100.00;96998.41;2612574;28;20087;-85
2023/08/01 05:26:51;;;;;;;2.35;1.92;;;;;;;18.63;100.00;96996.16;2612586;28;20049;-85
2023/08/01 05:28:07;;;;;;;2.97;2.30;;;;;;;18.55;100.00;96995.94;2612706;28;20099;-85
2023/08/01 05:29:22;;;;;;;2.30;1.83;;;;;;;18.33;100.00;96993.28;2612667;28;20045;-85
2023/08/01 05:30:38;;;;;;;5.10;2.22;;;;;;;18.45;100.00;96994.09;2612446;28;20045;-85
2023/08/01 05:31:53;;;;;;;3.72;2.40;;;;;;;18.51;100.00;96994.53;2612531;28;20045;-85
2023/08/01 05:33:09;;;;;;;6.72;2.10;;;;;;;18.60;100.00;96999.88;2612618;28;20056;-85
2023/08/01 05:34:24;;;;;;;2.42;1.92;;;;;;;18.31;100.00;97000.53;2612827;28;20049;-85
2023/08/01 05:35:40;;;;;;;3.55;1.92;;;;;;;18.31;100.00;96997.06;2612345;28;20068;-85
2023/08/01 05:36:56;;;;;;;2.42;1.92;;;;;;;18.40;100.00;96996.25;2612463;28;20404;-85
2023/08/01 05:38:11;;;;;;;4.93;2.22;;;;;;;18.55;100.00;96990.66;2612569;28;20041;-85
2023/08/01 05:39:26;;;;;;;5.85;2.17;;;;;;;18.38;100.00;96995.56;2612488;28;20044;-85
2023/08/01 05:40:42;;;;;;;4.00;2.00;;;;;;;18.44;100.00;96995.06;2612373;28;20049;-85
2023/08/01 05:41:58;;;;;;;2.53;1.55;;;;;;;18.34;100.00;96997.59;2612630;28;20037;-85
2023/08/01 05:43:13;;;;;;;3.88;1.88;;;;;;;18.30;100.00;96995.34;2612217;28;20049;-85
2023/08/01 05:44:29;;;;;;;2.88;1.58;;;;;;;18.27;100.00;96996.44;2612343;28;20497;-86
2023/08/01 05:45:44;;;;;;;5.43;2.35;;;;;;;18.41;100.00;96991.81;2612322;28;20488;-85
2023/08/01 05:47:00;;;;;;;2.72;1.80;;;;;;;18.38;100.00;96992.06;2601474;28;20056;-85
2023/08/01 05:48:15;;;;;;;4.38;2.05;;;;;;;18.23;100.00;96989.75;2605654;28;20103;-85
2023/08/01 05:49:31;;;;;;;3.13;2.22;;;;;;;18.22;100.00;96990.69;2612436;28;20041;-85
2023/08/01 05:50:46;;;;;;;6.20;2.25;;;;;;;18.17;100.00;96985.78;2612354;28;20044;-85
2023/08/01 05:52:02;;;;;;;3.40;1.70;;;;;;;18.24;100.00;96983.47;2612247;28;20052;-84
2023/08/01 05:53:17;;;;;;;4.00;2.33;;;;;;;18.36;100.00;96989.53;2612404;28;20047;-85
2023/08/01 05:54:33;;;;;;;5.72;2.05;;;;;;;18.36;100.00;96978.94;2612457;28;20049;-85